Time;durP1;ratioP1;P1;durP2;ratioP2;P2;SDS_P1;SDS_P2;PMS_P1;PMS_P2;Temp;Humidity;BMP_temperature;BMP_pressure;BME280_temperature;BME280_humidity;BME280_pressure;Samples;Min_cycle;Max_cycle;Signal;HPM_P1;HPM_P2
2023/05/14 00:00:48;;;;;;;6.30;2.42;;;7.70;99.90;;;6.40;75.96;101773.56;5019269;28;20045;-74
2023/05/14 00:03:13;;;;;;;2.67;1.65;;;7.70;99.90;;;6.35;75.87;101773.63;4999090;28;20095;-74
2023/05/14 00:05:39;;;;;;;3.45;1.90;;;7.60;99.90;;;6.31;75.62;101771.06;5011073;28;20033;-74
2023/05/14 00:08:05;;;;;;;3.33;1.77;;;7.60;99.90;;;6.27;75.77;101764.13;5019380;28;20038;-74
2023/05/14 00:10:31;;;;;;;5.32;2.38;;;7.60;99.90;;;6.24;75.88;101762.41;5005452;28;20041;-73
2023/05/14 00:12:57;;;;;;;4.30;2.33;;;7.50;99.90;;;6.24;76.03;101759.81;5020401;28;20041;-74
2023/05/14 00:15:22;;;;;;;3.85;2.13;;;7.50;99.90;;;6.23;75.93;101768.53;5008773;28;20037;-74
2023/05/14 00:17:48;;;;;;;6.60;2.17;;;7.50;99.90;;;6.22;75.62;101758.97;5009009;28;20041;-74
2023/05/14 00:20:14;;;;;;;3.58;2.00;;;7.50;99.90;;;6.23;75.74;101762.44;5014278;28;20026;-75
2023/05/14 00:22:40;;;;;;;3.88;2.15;;;7.50;99.90;;;6.22;75.86;101766.81;5009688;28;20052;-74
2023/05/14 00:25:07;;;;;;;3.53;2.35;;;7.50;99.90;;;6.20;75.92;101757.22;5034357;28;20113;-74
2023/05/14 00:27:34;;;;;;;3.95;2.03;;;7.50;99.90;;;6.18;75.66;101754.66;5000205;28;20049;-74
2023/05/14 00:30:01;;;;;;;3.88;2.20;;;7.40;99.90;;;6.15;75.73;101747.72;4998265;28;20603;-74
2023/05/14 00:32:27;;;;;;;5.15;2.20;;;7.40;99.90;;;6.13;75.97;101753.81;5017583;28;20514;-74
2023/05/14 00:34:52;;;;;;;4.45;2.50;;;7.40;99.90;;;6.12;75.87;101744.25;5010350;28;20049;-74
2023/05/14 00:37:18;;;;;;;5.13;2.38;;;7.40;99.90;;;6.09;76.17;101744.28;5026123;28;20554;-74
2023/05/14 00:39:44;;;;;;;3.55;2.25;;;7.40;99.90;;;6.10;76.14;101748.63;5014021;28;20120;-74
2023/05/14 00:42:10;;;;;;;5.60;2.53;;;7.40;99.90;;;6.07;76.45;101744.31;5004855;28;20064;-74
2023/05/14 00:44:36;;;;;;;4.28;2.00;;;7.30;99.90;;;6.06;76.83;101745.19;5006812;28;20045;-74
2023/05/14 00:47:02;;;;;;;2.97;1.77;;;7.40;99.90;;;6.06;77.10;101742.56;5019234;28;20038;-74
2023/05/14 00:49:28;;;;;;;5.55;3.20;;;7.40;99.90;;;6.06;76.88;101752.16;4998898;28;20375;-74
2023/05/14 00:51:57;;;;;;;3.88;2.25;;;7.40;99.90;;;6.06;76.41;101739.09;5007488;28;20490;-74
2023/05/14 00:54:23;;;;;;;2.83;1.80;;;7.30;99.90;;;6.03;76.99;101741.75;5006126;28;20490;-74
2023/05/14 00:56:50;;;;;;;5.40;2.30;;;7.30;99.90;;;6.00;76.84;101741.78;5015457;28;20076;-74
2023/05/14 00:59:15;;;;;;;2.50;1.88;;;7.30;99.90;;;5.94;76.86;101735.75;5018904;28;20032;-74
2023/05/14 01:01:41;;;;;;;4.90;2.53;;;7.20;99.90;;;5.92;77.38;101734.84;5014733;28;20388;-75
2023/05/14 01:04:09;;;;;;;2.72;1.90;;;7.30;99.90;;;5.91;77.62;101737.47;5011210;28;20029;-74
2023/05/14 01:07:01;;;;;;;3.30;1.70;;;7.20;99.90;;;5.89;77.66;101740.09;5013272;28;20051;-74
2023/05/14 01:09:52;;;;;;;4.63;2.33;;;7.20;99.90;;;5.90;77.76;101735.75;5020161;28;20034;-74
2023/05/14 01:12:39;;;;;;;3.42;2.00;;;7.20;99.90;;;5.93;77.38;101735.72;5015113;28;20041;-74
2023/05/14 01:15:33;;;;;;;11.38;3.65;;;7.20;99.90;;;6.00;77.57;101737.41;5012751;28;20057;-74
2023/05/14 01:18:07;;;;;;;3.60;2.25;;;7.30;99.90;;;6.06;77.74;101734.72;5018801;28;20041;-74
2023/05/14 01:20:32;;;;;;;3.28;1.75;;;7.30;99.90;;;6.06;78.60;101733.88;5007741;28;20116;-74
2023/05/14 01:22:58;;;;;;;3.58;1.88;;;7.30;99.90;;;6.01;78.10;101733.06;5015683;28;20037;-74
2023/05/14 01:25:25;;;;;;;3.28;1.95;;;7.30;99.90;;;5.94;78.11;101735.75;5014240;28;20053;-74
2023/05/14 01:27:54;;;;;;;2.95;1.90;;;7.20;99.90;;;5.91;78.30;101727.88;5013403;28;20041;-74
2023/05/14 01:30:34;;;;;;;3.58;1.92;;;7.20;99.90;;;5.92;78.11;101729.63;5030861;28;20030;-74
2023/05/14 01:33:07;;;;;;;12.68;2.78;;;7.20;99.90;;;5.93;78.92;101726.13;5004660;28;20099;-74
2023/05/14 01:35:33;;;;;;;4.80;2.13;;;7.20;99.90;;;6.02;80.06;101729.53;5014458;28;20033;-74
2023/05/14 01:38:03;;;;;;;4.15;2.33;;;7.30;99.90;;;6.11;80.81;101730.31;5012303;28;20029;-74
2023/05/14 01:40:30;;;;;;;4.68;2.45;;;7.30;99.90;;;6.14;80.52;101724.19;5044944;28;20134;-74
2023/05/14 01:42:56;;;;;;;4.05;1.92;;;7.30;99.90;;;6.06;80.32;101716.41;5003898;28;20099;-74
2023/05/14 01:45:23;;;;;;;3.92;2.03;;;7.30;99.90;;;5.94;79.41;101721.78;5015012;28;20031;-74
2023/05/14 01:47:50;;;;;;;4.80;1.98;;;7.20;99.90;;;5.82;79.05;101711.44;5014432;28;20040;-74
2023/05/14 01:50:16;;;;;;;4.80;2.00;;;7.10;99.90;;;5.70;79.27;101705.47;5004665;28;20026;-74
2023/05/14 01:52:45;;;;;;;4.10;2.20;;;7.00;99.90;;;5.64;78.85;101704.69;5014641;28;20041;-74
2023/05/14 01:55:11;;;;;;;3.53;2.10;;;7.00;99.90;;;5.64;78.90;101707.28;4999580;28;20586;-74
2023/05/14 01:57:37;;;;;;;3.67;2.25;;;7.00;99.90;;;5.64;79.09;101695.09;5012288;28;20122;-73
2023/05/14 02:00:03;;;;;;;5.47;2.35;;;7.00;99.90;;;5.69;79.37;101702.88;5011613;28;20022;-74
2023/05/14 02:02:29;;;;;;;6.53;2.35;;;7.00;99.90;;;5.72;79.34;101702.81;5017088;28;20072;-74
2023/05/14 02:04:55;;;;;;;5.10;2.72;;;7.00;99.90;;;5.79;79.94;101709.75;5015751;28;20535;-74
2023/05/14 02:07:22;;;;;;;4.47;2.33;;;7.10;99.90;;;5.84;80.35;101701.84;5003131;28;20098;-74
2023/05/14 02:09:48;;;;;;;9.70;2.45;;;7.10;99.90;;;5.90;81.81;101704.41;5001954;28;20442;-74
2023/05/14 02:12:13;;;;;;;4.95;1.83;;;7.20;99.90;;;5.96;83.86;101730.47;5012618;28;20033;-75
2023/05/14 02:14:39;;;;;;;2.97;1.63;;;7.40;99.90;;;6.29;86.76;101738.81;5015927;28;24406;-74
2023/05/14 02:17:05;;;;;;;4.95;2.47;;;7.60;99.90;;;6.52;88.54;101726.31;5019798;28;20090;-74
2023/05/14 02:19:31;;;;;;;4.82;2.03;;;7.80;99.90;;;6.71;89.51;101728.66;4997885;28;20661;-74
2023/05/14 02:22:00;;;;;;;3.28;2.08;;;7.90;99.90;;;6.80;89.59;101745.97;5020407;28;20071;-74
2023/05/14 02:24:26;;;;;;;12.45;2.25;;;8.10;99.90;;;6.99;89.60;101750.03;5004939;28;20033;-74
2023/05/14 02:26:52;;;;;;;4.00;2.45;;;8.20;99.90;;;7.17;89.28;101741.91;4997477;28;20040;-75
2023/05/14 02:29:18;;;;;;;4.30;2.33;;;8.40;99.90;;;7.40;88.41;101753.75;5026203;28;20036;-74
2023/05/14 02:31:45;;;;;;;4.22;2.53;;;8.60;99.90;;;7.48;87.70;101753.63;5013779;28;20032;-74
2023/05/14 02:34:10;;;;;;;4.65;2.17;;;8.70;99.90;;;7.60;88.19;101751.66;4998803;28;20037;-74
2023/05/14 02:36:36;;;;;;;6.97;2.50;;;8.80;99.90;;;7.68;87.21;101740.16;5011225;28;20088;-74
2023/05/14 02:39:05;;;;;;;3.95;1.75;;;8.80;99.90;;;7.69;85.80;101745.38;4999971;28;20569;-74
2023/05/14 02:41:33;;;;;;;4.88;2.30;;;8.90;99.90;;;7.70;85.23;101746.25;4996567;28;20124;-74
2023/05/14 02:43:59;;;;;;;7.22;3.28;;;8.90;99.90;;;7.73;84.01;101740.94;5011412;28;20545;-74
2023/05/14 02:46:25;;;;;;;3.75;2.58;;;9.00;99.90;;;7.73;83.53;101735.69;5013819;28;20053;-74
2023/05/14 02:48:51;;;;;;;4.90;2.70;;;9.00;99.90;;;7.76;83.65;101733.03;5002461;28;20112;-74
2023/05/14 02:51:20;;;;;;;4.75;2.35;;;9.00;99.90;;;7.76;84.21;101722.53;5010564;28;20502;-74
2023/05/14 02:53:46;;;;;;;5.35;2.33;;;9.00;99.90;;;7.76;83.19;101727.78;5000870;28;20617;-74
2023/05/14 02:56:12;;;;;;;5.95;2.90;;;8.90;99.90;;;7.73;82.71;101730.44;4997467;28;20714;-73
2023/05/14 02:58:38;;;;;;;3.88;2.33;;;8.90;99.90;;;7.68;81.67;101722.66;5002183;28;20389;-74
2023/05/14 03:01:04;;;;;;;3.50;2.13;;;8.80;99.90;;;7.51;80.05;101724.72;5011287;28;20048;-74
2023/05/14 03:03:30;;;;;;;4.53;1.95;;;8.70;99.90;;;7.31;79.14;101710.22;5004352;28;20042;-75
2023/05/14 03:05:56;;;;;;;3.92;3.00;;;8.50;99.90;;;7.17;78.73;101714.81;5012895;28;20076;-75
2023/05/14 03:08:22;;;;;;;3.38;2.05;;;8.40;99.90;;;7.05;79.17;101705.44;5014331;28;20077;-74
2023/05/14 03:10:48;;;;;;;4.85;1.95;;;8.30;99.90;;;6.99;80.39;101709.00;5011106;28;20025;-74
2023/05/14 03:13:16;;;;;;;3.63;2.08;;;8.20;99.90;;;6.88;80.26;101694.38;5003173;28;20721;-74
2023/05/14 03:15:43;;;;;;;2.92;1.80;;;8.10;99.90;;;6.73;80.00;101691.09;5012660;28;20037;-74
2023/05/14 03:18:09;;;;;;;4.28;2.38;;;8.00;99.90;;;6.63;79.00;101694.75;4997728;28;20030;-74
2023/05/14 03:20:35;;;;;;;4.95;2.70;;;7.90;99.90;;;6.60;81.11;101697.41;5002606;28;20025;-74
2023/05/14 03:23:00;;;;;;;6.72;2.58;;;7.90;99.90;;;6.69;83.09;101694.63;4993419;28;20034;-74
2023/05/14 03:25:33;;;;;;;5.15;3.10;;;8.00;99.90;;;6.83;85.10;101697.06;4985428;28;20033;-74
2023/05/14 03:27:59;;;;;;;8.02;2.80;;;8.10;99.90;;;6.99;86.73;101700.28;5003327;28;20530;-74
2023/05/14 03:30:25;;;;;;;5.90;2.85;;;8.20;99.90;;;7.15;87.75;101696.53;5003488;28;20063;-74
2023/05/14 03:32:51;;;;;;;4.57;2.63;;;8.40;99.90;;;7.29;88.71;101703.28;5012598;28;20631;-74
2023/05/14 03:35:17;;;;;;;5.05;3.05;;;8.50;99.90;;;7.39;89.05;101704.88;4994512;28;20095;-74
2023/05/14 03:37:46;;;;;;;3.38;2.10;;;8.50;99.90;;;7.49;87.10;101697.69;5004940;28;20395;-74
2023/05/14 03:40:12;;;;;;;3.97;2.30;;;8.60;99.90;;;7.52;85.91;101695.88;4994259;28;20722;-74
2023/05/14 03:42:37;;;;;;;4.10;2.72;;;8.70;99.90;;;7.54;86.02;101701.97;5011585;28;20090;-74
2023/05/14 03:45:04;;;;;;;4.10;2.28;;;8.70;99.90;;;7.56;86.09;101700.19;5010449;28;20041;-74
2023/05/14 03:47:30;;;;;;;6.10;2.97;;;8.80;99.90;;;7.62;86.43;101709.66;5011963;28;21073;-74
2023/05/14 03:49:56;;;;;;;5.78;3.13;;;8.80;99.90;;;7.69;87.09;101708.69;4998965;28;20033;-74
2023/05/14 03:52:22;;;;;;;4.53;2.63;;;8.90;99.90;;;7.77;86.68;101705.91;5015579;28;20038;-74
2023/05/14 03:54:47;;;;;;;4.85;2.63;;;9.00;99.90;;;7.87;86.16;101706.59;5017634;28;20574;-74
2023/05/14 03:57:13;;;;;;;4.68;2.85;;;9.00;99.90;;;7.95;86.26;101695.06;5013327;28;20017;-74
2023/05/14 03:59:39;;;;;;;7.40;2.92;;;9.20;99.90;;;8.11;84.80;101694.75;5012752;28;20113;-74
2023/05/14 04:02:05;;;;;;;7.20;3.13;;;9.30;99.90;;;8.23;84.43;101702.38;5013425;28;20049;-74
2023/05/14 04:04:30;;;;;;;6.15;2.75;;;9.30;99.90;;;8.32;83.21;101699.53;5015759;28;20125;-74
2023/05/14 04:06:56;;;;;;;6.85;3.60;;;9.40;99.90;;;8.42;82.66;101702.84;5019772;28;20821;-74
2023/05/14 04:09:22;;;;;;;6.00;3.22;;;9.60;99.90;;;8.75;82.06;101697.75;5018712;28;20029;-75
2023/05/14 04:11:48;;;;;;;4.50;2.53;;;9.80;99.90;;;8.83;80.71;101698.41;5002808;28;20045;-74
2023/05/14 04:14:14;;;;;;;6.35;3.05;;;9.80;99.90;;;8.85;80.15;101703.63;5004846;28;20041;-74
2023/05/14 04:16:43;;;;;;;3.70;2.47;;;9.80;99.90;;;8.83;78.57;101706.28;5016310;28;20033;-74
2023/05/14 04:19:08;;;;;;;5.63;3.08;;;9.80;99.90;;;8.79;77.79;101697.63;5019346;28;20061;-75
2023/05/14 04:21:34;;;;;;;3.75;2.20;;;9.70;99.90;;;8.68;76.73;101690.88;5014690;28;20059;-74
2023/05/14 04:24:01;;;;;;;3.15;2.15;;;9.60;99.90;;;8.49;75.94;101686.06;5018983;28;20099;-74
2023/05/14 04:26:27;;;;;;;4.10;2.30;;;9.40;99.90;;;8.27;75.75;101679.53;5019388;28;20057;-74
2023/05/14 04:28:52;;;;;;;6.45;2.80;;;9.30;99.90;;;8.09;75.92;101672.91;5016807;28;20047;-74
2023/05/14 04:31:18;;;;;;;3.42;2.20;;;9.20;99.90;;;8.02;75.78;101677.44;5025340;28;20156;-73
2023/05/14 04:33:46;;;;;;;4.82;2.60;;;9.20;99.90;;;8.00;76.34;101681.84;5017788;28;20029;-75
2023/05/14 04:36:12;;;;;;;9.85;3.33;;;9.20;99.90;;;8.05;76.78;101681.75;4990826;28;20029;-74
2023/05/14 04:38:38;;;;;;;5.45;3.10;;;9.20;99.90;;;8.12;76.71;101696.44;4990314;28;20026;-74
2023/05/14 04:41:04;;;;;;;5.95;2.78;;;9.20;99.90;;;8.19;78.69;101698.06;5006946;28;20048;-74
2023/05/14 04:43:30;;;;;;;6.32;3.08;;;9.30;99.90;;;8.25;80.46;101708.44;5017171;28;20034;-73
2023/05/14 04:45:56;;;;;;;8.70;2.75;;;9.40;99.90;;;8.36;81.34;101711.69;5005144;28;20032;-75
2023/05/14 04:48:22;;;;;;;3.92;2.85;;;9.50;99.90;;;8.48;82.58;101717.59;5007312;28;20125;-74
2023/05/14 04:50:48;;;;;;;3.88;2.70;;;9.60;99.90;;;8.59;82.83;101723.47;5020136;28;20026;-74
2023/05/14 04:53:13;;;;;;;6.45;3.20;;;9.70;99.90;;;8.73;82.83;101724.03;5015229;28;20457;-74
2023/05/14 04:55:39;;;;;;;5.30;3.17;;;9.80;99.90;;;8.89;81.35;101721.91;5005743;28;20117;-74
2023/05/14 04:58:05;;;;;;;8.65;3.25;;;10.00;99.90;;;9.06;80.18;101723.28;4990009;28;20120;-74
2023/05/14 05:00:32;;;;;;;6.38;3.20;;;10.10;99.90;;;9.23;80.00;101731.59;5012322;28;20458;-74
2023/05/14 05:02:57;;;;;;;3.20;2.25;;;10.30;99.90;;;9.37;79.83;101729.50;5014441;28;20045;-74
2023/05/14 05:05:23;;;;;;;3.78;2.40;;;10.40;99.90;;;9.51;79.95;101721.25;5004899;28;20397;-74
2023/05/14 05:07:49;;;;;;;5.18;2.55;;;10.50;99.90;;;9.69;79.81;101719.03;5003190;28;20048;-74
2023/05/14 05:10:15;;;;;;;6.97;2.60;;;10.70;99.90;;;9.86;79.53;101722.91;5007678;28;20033;-74
2023/05/14 05:12:41;;;;;;;6.45;3.30;;;10.90;99.90;;;10.05;78.62;101720.63;5033214;28;20040;-74
2023/05/14 05:15:08;;;;;;;4.82;2.67;;;11.00;99.90;;;10.29;79.25;101720.84;5015989;28;20129;-74
2023/05/14 05:17:35;;;;;;;4.57;3.08;;;11.20;99.90;;;10.49;79.25;101728.16;5014984;28;20112;-74
2023/05/14 05:20:01;;;;;;;4.80;2.63;;;11.40;99.90;;;10.71;78.63;101723.09;5015504;28;20029;-75
2023/05/14 05:22:27;;;;;;;3.50;2.60;;;11.60;99.90;;;10.95;78.22;101715.31;4985178;28;20033;-74
2023/05/14 05:24:54;;;;;;;5.00;2.90;;;11.80;99.90;;;11.18;78.16;101704.88;5014742;28;20068;-74
2023/05/14 05:27:20;;;;;;;4.72;2.58;;;12.00;99.90;;;11.37;79.31;101689.28;5013582;28;20042;-75
2023/05/14 05:29:46;;;;;;;3.83;2.40;;;12.10;99.90;;;11.62;80.54;101677.88;5003631;28;20092;-74
2023/05/14 05:32:12;;;;;;;4.00;2.17;;;12.30;99.90;;;12.07;80.81;101678.03;5012500;28;20033;-73
2023/05/14 05:34:40;;;;;;;6.25;3.25;;;12.90;99.90;;;14.98;75.59;101719.25;5014077;28;20056;-74
2023/05/14 05:37:08;;;;;;;7.43;3.88;;;14.70;99.90;;;18.74;64.99;101717.38;5012231;28;20435;-74
2023/05/14 05:39:33;;;;;;;10.02;4.57;;;17.10;99.90;;;22.47;55.08;101726.00;5006618;28;20061;-74
2023/05/14 05:42:01;;;;;;;5.28;3.03;;;19.50;99.90;;;24.45;49.61;101752.16;5005009;28;20033;-74
2023/05/14 05:44:29;;;;;;;5.00;2.88;;;21.30;99.90;;;25.14;47.91;101755.81;5012252;28;20038;-75
2023/05/14 05:46:55;;;;;;;4.53;2.78;;;22.60;99.90;;;26.35;45.53;101762.41;5012817;28;20025;-74
2023/05/14 05:49:22;;;;;;;5.18;2.45;;;23.70;99.90;;;26.78;44.48;101767.19;4994345;28;20479;-74
2023/05/14 05:51:47;;;;;;;3.83;2.38;;;24.30;99.10;;;26.83;44.13;101771.28;5004776;28;20038;-74
2023/05/14 05:54:13;;;;;;;5.07;3.03;;;24.80;98.50;;;27.11;43.91;101783.72;5005621;28;20507;-74
2023/05/14 05:56:39;;;;;;;;;;;24.80;98.40;;;26.55;45.14;101769.41;4988142;28;20047;-74
2023/05/14 05:59:05;;;;;;;3.80;2.15;;;24.90;97.30;;;24.86;46.81;101760.19;5024783;28;19917;-74
2023/05/14 06:01:31;;;;;;;3.45;2.25;;;24.20;96.80;;;23.31;49.08;101745.03;5011920;28;20092;-74
2023/05/14 06:03:57;;;;;;;4.93;3.03;;;23.40;97.30;;;22.02;51.32;101734.03;5016202;28;20032;-75
2023/05/14 06:06:23;;;;;;;5.82;2.20;;;22.50;98.20;;;20.82;53.46;101729.75;5011968;28;20482;-74
2023/05/14 06:08:49;;;;;;;4.10;2.70;;;21.50;99.20;;;19.86;55.83;101720.53;5018146;28;20041;-74
2023/05/14 06:11:15;;;;;;;;;;;21.20;99.80;;;19.04;56.82;101724.34;4997447;28;20044;-74
2023/05/14 06:13:41;;;;;;;2.60;1.55;;;20.00;99.90;;;18.33;58.50;101717.38;5009362;28;19925;-74
2023/05/14 06:16:07;;;;;;;;;;;19.90;99.90;;;18.04;59.13;101717.44;5014632;28;20379;-74
2023/05/14 06:18:32;;;;;;;2.35;1.58;;;19.00;99.90;;;17.70;59.81;101713.28;5011533;28;19920;-74
2023/05/14 06:20:59;;;;;;;;;;;18.90;99.90;;;17.22;60.36;101708.16;4984015;28;20439;-74
2023/05/14 06:23:25;;;;;;;3.92;3.00;;;18.30;99.90;;;17.13;61.12;101712.22;5021114;28;19916;-74
2023/05/14 06:25:51;;;;;;;5.32;2.72;;;18.10;99.90;;;17.08;61.76;101710.75;5003112;28;20087;-75
2023/05/14 06:28:17;;;;;;;3.92;2.30;;;18.00;99.90;;;17.10;62.82;101715.03;5023998;28;20044;-74
2023/05/14 06:30:43;;;;;;;8.00;4.05;;;17.90;99.90;;;17.09;64.01;101717.81;5006670;28;20116;-74
2023/05/14 06:33:09;;;;;;;;;;;17.90;99.90;;;17.04;64.27;101712.75;5013232;28;20072;-74
2023/05/14 06:35:35;;;;;;;13.52;3.85;;;17.80;99.90;;;17.15;63.73;101706.81;5030583;28;19944;-74
2023/05/14 06:38:01;;;;;;;5.60;3.47;;;17.80;99.90;;;17.22;63.96;101713.47;4991199;28;20041;-74
2023/05/14 06:40:29;;;;;;;6.13;2.85;;;17.90;99.90;;;17.38;64.29;101708.94;5005692;28;20057;-74
2023/05/14 06:42:55;;;;;;;1.48;1.13;;;18.00;99.90;;;17.67;63.45;101717.00;5012455;28;20038;-74
2023/05/14 06:45:21;;;;;;;4.85;3.10;;;18.20;99.90;;;17.67;63.18;101724.97;5009846;28;20048;-74
2023/05/14 06:47:47;;;;;;;;;;;18.20;99.90;;;18.86;61.79;101729.13;5002124;28;20454;-74
2023/05/14 06:50:12;;;;;;;6.53;3.78;;;19.30;99.90;;;20.53;56.74;101747.94;5009449;28;19920;-74
2023/05/14 06:52:38;;;;;;;;;;;19.40;99.90;;;21.76;54.68;101747.66;5013776;28;20386;-74
2023/05/14 06:55:05;;;;;;;10.88;3.90;;;21.70;99.90;;;23.44;51.16;101745.69;4994044;28;19917;-74
2023/05/14 06:57:33;;;;;;;6.93;3.08;;;23.00;99.90;;;25.05;48.17;101762.91;5017154;28;20045;-74
2023/05/14 06:59:59;;;;;;;6.43;2.53;;;24.60;98.60;;;27.31;44.12;101792.53;5018806;28;20034;-74
2023/05/14 07:02:24;;;;;;;8.45;3.08;;;26.00;94.50;;;27.88;42.08;101785.88;5010889;28;20032;-74
2023/05/14 07:04:50;;;;;;;;;;;26.20;95.60;;;27.11;41.14;101783.72;5012802;28;20537;-74
2023/05/14 07:07:19;;;;;;;9.52;2.80;;;26.60;91.90;;;26.03;44.02;101776.34;5006629;28;20336;-74
2023/05/14 07:09:48;;;;;;;8.02;3.92;;;26.80;91.90;;;27.54;41.78;101803.72;5005891;28;20037;-75
2023/05/14 07:12:14;;;;;;;6.28;4.10;;;27.30;90.90;;;27.69;40.96;101798.59;5000071;28;20045;-74
2023/05/14 07:14:39;;;;;;;4.93;2.70;;;28.10;91.10;;;29.05;39.24;101825.88;5029218;28;20038;-74
2023/05/14 07:17:05;;;;;;;;;;;28.20;91.80;;;29.48;36.99;101823.88;5026583;28;20038;-74
2023/05/14 07:19:31;;;;;;;5.80;2.75;;;29.40;86.80;;;29.89;37.33;101831.19;5018089;28;20305;-74
2023/05/14 07:21:57;;;;;;;3.47;2.05;;;30.10;86.40;;;30.96;36.01;101840.69;5008797;28;20048;-74
2023/05/14 07:24:26;;;;;;;9.48;2.30;;;30.70;81.30;;;30.99;34.86;101842.22;5008886;28;20029;-74
2023/05/14 07:26:53;;;;;;;4.63;2.20;;;30.60;77.40;;;30.12;35.46;101832.16;4993304;28;20037;-75
2023/05/14 07:29:19;;;;;;;4.25;2.08;;;30.80;76.60;;;30.22;34.71;101831.97;5004824;28;20128;-74
2023/05/14 07:31:45;;;;;;;4.60;1.75;;;30.80;77.40;;;30.51;34.58;101853.13;5005226;28;20037;-75
2023/05/14 07:34:11;;;;;;;2.08;1.60;;;30.50;72.90;;;29.44;35.15;101839.66;5013885;28;20116;-75
2023/05/14 07:36:37;;;;;;;15.30;2.60;;;30.50;74.10;;;29.82;34.16;101844.59;5005692;28;20505;-74
2023/05/14 07:39:03;;;;;;;2.65;1.63;;;30.50;73.70;;;30.06;33.09;101849.13;5005736;28;20060;-74
2023/05/14 07:41:29;;;;;;;4.32;2.25;;;30.30;71.20;;;29.27;33.78;101839.84;5010564;28;20469;-74
2023/05/14 07:43:55;;;;;;;14.27;2.85;;;30.10;73.10;;;29.60;33.80;101849.66;5010365;28;20029;-74
2023/05/14 07:46:21;;;;;;;4.68;2.40;;;30.30;74.80;;;30.01;33.46;101856.97;5007626;28;20032;-74
2023/05/14 07:48:47;;;;;;;5.57;2.40;;;30.40;74.90;;;30.42;33.21;101857.75;4999070;28;20121;-74
2023/05/14 07:51:12;;;;;;;5.75;2.08;;;30.60;74.60;;;30.76;32.50;101869.34;5012018;28;20088;-74
2023/05/14 07:53:38;;;;;;;9.18;2.08;;;30.80;74.00;;;30.94;32.17;101874.53;5014151;28;20037;-74
2023/05/14 07:56:04;;;;;;;1.33;1.15;;;31.00;73.90;;;31.02;32.33;101882.66;5012807;28;20130;-74
2023/05/14 07:58:30;;;;;;;2.53;1.65;;;30.90;75.30;;;30.76;32.95;101874.78;4992810;28;20041;-75
2023/05/14 08:00:56;;;;;;;4.57;1.95;;;31.00;75.10;;;31.14;32.76;101880.38;5010323;28;20545;-74
2023/05/14 08:03:22;;;;;;;3.13;1.67;;;31.00;72.70;;;30.85;32.36;101881.88;4988476;28;20094;-76
2023/05/14 08:05:48;;;;;;;2.45;1.70;;;30.80;70.90;;;30.17;32.88;101875.09;5005806;28;20087;-75
2023/05/14 08:08:14;;;;;;;9.57;2.00;;;30.60;73.20;;;30.15;32.99;101875.28;5010096;28;20036;-74
2023/05/14 08:10:39;;;;;;;3.17;1.92;;;30.10;72.40;;;29.00;34.77;101852.63;4983049;28;20379;-74
2023/05/14 08:13:05;;;;;;;5.22;1.45;;;29.70;72.00;;;28.56;34.25;101850.09;5012314;28;20060;-74
2023/05/14 08:15:31;;;;;;;2.90;1.58;;;29.50;73.80;;;28.90;34.12;101841.94;4993585;28;20109;-75
2023/05/14 08:18:02;;;;;;;6.07;1.52;;;29.30;74.30;;;28.89;34.16;101842.09;5015758;28;20112;-74
2023/05/14 08:20:29;;;;;;;8.60;1.77;;;29.00;70.70;;;28.30;34.11;101845.53;5011921;28;20064;-74
2023/05/14 08:22:57;;;;;;;1.50;1.25;;;28.70;73.10;;;27.92;34.50;101836.00;5012178;28;20118;-74
2023/05/14 08:25:23;;;;;;;2.33;1.48;;;28.30;71.30;;;27.03;35.17;101820.63;5001557;28;20529;-74
2023/05/14 08:27:49;;;;;;;2.83;1.48;;;27.60;70.70;;;26.15;35.67;101800.28;5004287;28;20064;-74
2023/05/14 08:30:17;;;;;;;7.05;1.48;;;27.20;74.50;;;26.34;36.00;101807.47;5014427;28;20111;-74
2023/05/14 08:32:43;;;;;;;3.28;1.55;;;27.10;75.30;;;26.78;35.73;101813.09;5011088;28;20112;-74
2023/05/14 08:35:09;;;;;;;1.90;1.35;;;26.80;73.20;;;25.81;36.25;101799.94;5012999;28;20224;-74
2023/05/14 08:37:35;;;;;;;2.28;1.20;;;26.60;72.00;;;25.55;34.86;101794.28;5014350;28;20517;-74
2023/05/14 08:40:01;;;;;;;3.40;1.70;;;26.40;72.80;;;25.80;35.13;101800.94;5017646;28;20040;-75
2023/05/14 08:42:28;;;;;;;2.33;1.30;;;26.20;72.40;;;25.25;35.72;101781.81;5013418;28;20556;-74
2023/05/14 08:45:04;;;;;;;2.05;1.15;;;26.10;73.40;;;24.98;35.70;101780.66;5012934;28;20026;-74
2023/05/14 08:47:30;;;;;;;3.13;1.45;;;25.90;73.90;;;24.96;36.43;101782.63;5007157;28;20040;-74
2023/05/14 08:50:07;;;;;;;131.95;5.97;;;25.70;73.90;;;24.76;36.21;101773.66;5014122;28;20038;-74
2023/05/14 08:52:33;;;;;;;1.15;0.82;;;25.70;72.00;;;24.73;36.36;101777.50;5016363;28;20041;-74
2023/05/14 08:55:03;;;;;;;1.45;1.20;;;25.60;72.80;;;24.77;35.65;101768.16;5012933;28;20036;-74
2023/05/14 08:57:31;;;;;;;2.28;1.10;;;25.50;73.30;;;24.80;35.65;101763.47;4988496;28;20123;-74
2023/05/14 08:59:57;;;;;;;2.00;1.70;;;25.50;69.60;;;24.69;35.43;101765.28;4986269;28;20042;-75
2023/05/14 09:02:31;;;;;;;1.65;1.02;;;25.50;70.60;;;24.72;35.20;101762.31;4996987;28;20033;-74
2023/05/14 09:05:02;;;;;;;0.88;0.80;;;25.60;72.10;;;24.73;34.83;101774.81;4996162;28;20507;-75
2023/05/14 09:07:28;;;;;;;0.85;0.82;;;25.60;71.90;;;24.84;34.43;101765.75;4996166;28;20689;-74
2023/05/14 09:09:54;;;;;;;2.10;1.40;;;25.50;69.60;;;24.43;33.43;101769.41;5028388;28;20080;-74
2023/05/14 09:12:21;;;;;;;2.15;1.02;;;25.40;70.30;;;24.40;34.20;101764.31;5008549;28;20739;-74
2023/05/14 09:14:51;;;;;;;1.67;1.10;;;25.40;70.90;;;24.64;34.09;101762.16;5003128;28;20451;-74
2023/05/14 09:17:18;;;;;;;1.40;1.20;;;25.30;72.70;;;24.54;35.25;101756.75;5016220;28;20118;-75
2023/05/14 09:19:51;;;;;;;1.67;1.10;;;25.40;73.00;;;24.87;35.16;101759.22;5007243;28;20513;-74
2023/05/14 09:22:18;;;;;;;1.33;0.73;;;25.50;70.10;;;24.29;34.18;101755.38;5002567;28;20103;-74
2023/05/14 09:24:45;;;;;;;1.83;1.20;;;25.40;69.20;;;24.40;34.18;101756.25;5018959;28;20029;-74
2023/05/14 09:27:24;;;;;;;1.25;0.60;;;25.30;70.90;;;24.25;33.61;101758.47;5014163;28;20188;-74
2023/05/14 09:29:50;;;;;;;2.70;1.10;;;25.30;69.40;;;24.58;34.15;101762.72;5017864;28;20119;-75
2023/05/14 09:32:20;;;;;;;0.95;0.70;;;25.50;71.10;;;24.99;33.98;101760.81;5013073;28;20034;-74
2023/05/14 09:34:46;;;;;;;1.10;0.60;;;25.50;69.50;;;24.85;33.60;101764.75;4999219;28;20044;-74
2023/05/14 09:37:18;;;;;;;1.58;0.98;;;25.40;66.70;;;24.31;33.46;101753.38;4996394;28;20128;-74
2023/05/14 09:39:47;;;;;;;1.02;0.75;;;25.50;70.50;;;24.89;33.92;101749.16;5018992;28;20041;-74
2023/05/14 09:42:12;;;;;;;1.35;0.68;;;25.70;70.10;;;25.16;33.25;101761.94;5018607;28;20140;-75
2023/05/14 09:44:41;;;;;;;1.17;0.80;;;25.80;67.90;;;25.37;32.64;101764.50;5013469;28;20504;-74
2023/05/14 09:47:08;;;;;;;1.75;1.00;;;25.90;66.00;;;25.35;31.62;101771.88;5002175;28;20080;-76
2023/05/14 09:49:39;;;;;;;1.20;0.73;;;26.00;66.60;;;25.34;32.15;101773.75;5030801;28;20096;-75
2023/05/14 09:52:06;;;;;;;0.95;0.70;;;25.90;64.70;;;24.89;30.64;101768.03;4998949;28;20038;-74
2023/05/14 09:54:36;;;;;;;1.35;0.73;;;25.70;64.70;;;24.91;31.53;101763.34;5014741;28;20095;-74
2023/05/14 09:57:02;;;;;;;1.48;0.90;;;25.80;69.50;;;25.38;33.08;101769.78;5013845;28;20038;-75
2023/05/14 09:59:31;;;;;;;4.32;0.93;;;26.00;65.70;;;25.57;31.08;101768.03;5007054;28;20037;-75
2023/05/14 10:02:02;;;;;;;2.42;0.93;;;26.20;65.20;;;25.56;31.27;101775.28;5012681;28;20049;-74
2023/05/14 10:04:36;;;;;;;1.08;0.70;;;26.20;67.50;;;25.31;31.68;101765.94;5014108;28;20040;-74
2023/05/14 10:07:05;;;;;;;1.63;1.20;;;26.20;66.10;;;25.52;31.95;101764.94;4997392;28;20046;-74
2023/05/14 10:09:36;;;;;;;3.05;1.05;;;26.30;66.70;;;25.80;31.88;101768.56;5010950;28;20033;-75
2023/05/14 10:12:06;;;;;;;0.60;0.60;;;26.20;64.40;;;25.30;31.24;101763.38;5013573;28;20091;-74
2023/05/14 10:14:49;;;;;;;2.10;0.98;;;26.10;63.90;;;25.02;30.84;101757.81;5011069;28;20125;-75
2023/05/14 10:17:25;;;;;;;3.58;2.30;;;25.90;65.00;;;25.18;31.25;101750.03;5005517;28;20048;-74
2023/05/14 10:19:57;;;;;;;1.02;0.82;;;25.80;63.20;;;24.91;29.74;101760.66;5012180;28;20057;-75